createdAt,value
2022-07-31T00:00:19.269Z,5.20
2022-07-31T00:02:46.709Z,5.30
2022-07-31T00:05:13.491Z,5.60
2022-07-31T00:07:40.213Z,5.57
2022-07-31T00:10:07.431Z,6.33
2022-07-31T00:12:37.197Z,6.40
2022-07-31T00:15:06.123Z,6.00
2022-07-31T00:17:33.167Z,5.63
2022-07-31T00:19:59.910Z,6.00
2022-07-31T00:22:26.562Z,5.90
2022-07-31T00:24:53.410Z,5.37
2022-07-31T00:27:20.065Z,5.80
2022-07-31T00:29:46.826Z,5.60
2022-07-31T00:32:13.506Z,5.50
2022-07-31T00:34:40.162Z,5.57
2022-07-31T00:37:07.101Z,5.80
2022-07-31T00:39:34.024Z,6.10
2022-07-31T00:42:00.701Z,5.80
2022-07-31T00:44:27.441Z,5.47
2022-07-31T00:46:54.215Z,5.07
2022-07-31T00:49:22.098Z,5.60
2022-07-31T00:51:48.751Z,5.50
2022-07-31T00:54:18.621Z,5.97
2022-07-31T00:56:50.249Z,6.17
2022-07-31T00:59:18.487Z,5.93
2022-07-31T01:01:51.588Z,5.70
2022-07-31T01:04:19.122Z,6.07
2022-07-31T01:06:47.062Z,6.40
2022-07-31T01:09:14.706Z,6.37
2022-07-31T01:12:02.371Z,6.47
2022-07-31T01:14:34.005Z,6.73
2022-07-31T01:17:02.243Z,6.20
2022-07-31T01:19:39.724Z,6.33
2022-07-31T01:22:34.099Z,5.53
2022-07-31T01:25:16.113Z,7.30
2022-07-31T01:27:56.412Z,7.80
2022-07-31T01:30:30.828Z,7.07
2022-07-31T01:33:02.052Z,6.00
2022-07-31T01:35:33.037Z,6.77
2022-07-31T01:38:14.746Z,6.40
2022-07-31T01:40:48.138Z,6.80
2022-07-31T01:43:29.636Z,6.90
2022-07-31T01:45:58.871Z,6.77
2022-07-31T01:48:26.749Z,6.30
2022-07-31T01:50:56.273Z,6.33
2022-07-31T01:53:24.892Z,6.40
2022-07-31T01:56:02.752Z,7.73
2022-07-31T01:58:35.064Z,6.10
2022-07-31T02:01:03.837Z,6.13
2022-07-31T02:03:43.750Z,5.77
2022-07-31T02:06:16.909Z,6.00
2022-07-31T02:08:46.474Z,6.50
2022-07-31T02:11:15.991Z,6.73
2022-07-31T02:13:43.658Z,5.87
2022-07-31T02:16:11.790Z,7.07
2022-07-31T02:18:38.954Z,7.10
2022-07-31T02:21:05.787Z,6.63
2022-07-31T02:23:33.374Z,6.80
2022-07-31T02:26:01.868Z,6.50
2022-07-31T02:28:30.615Z,7.07
2022-07-31T02:30:58.548Z,6.33
2022-07-31T02:33:26.540Z,6.17
2022-07-31T02:35:57.871Z,6.50
2022-07-31T02:38:27.215Z,6.33
2022-07-31T02:40:57.792Z,6.93
2022-07-31T02:43:26.765Z,6.90
2022-07-31T02:45:55.674Z,7.53
2022-07-31T02:48:23.751Z,6.90
2022-07-31T02:50:51.082Z,6.33
2022-07-31T02:53:18.030Z,6.72
2022-07-31T02:55:45.428Z,6.70
2022-07-31T02:58:12.443Z,6.93
2022-07-31T03:00:39.340Z,7.50
2022-07-31T03:03:06.063Z,7.60
2022-07-31T03:05:32.756Z,6.93
2022-07-31T03:07:59.439Z,6.53
2022-07-31T03:10:26.247Z,6.40
2022-07-31T03:12:55.573Z,6.30
2022-07-31T03:15:25.714Z,7.33
2022-07-31T03:17:54.427Z,6.97
2022-07-31T03:20:21.901Z,7.40
2022-07-31T03:22:49.317Z,7.07
2022-07-31T03:25:20.170Z,8.45
2022-07-31T03:27:56.241Z,7.10
2022-07-31T03:30:27.768Z,7.10
2022-07-31T03:32:56.002Z,7.30
2022-07-31T03:35:24.087Z,7.10
2022-07-31T03:37:50.981Z,7.35
2022-07-31T03:40:17.668Z,6.80
2022-07-31T03:42:44.784Z,7.20
2022-07-31T03:45:13.160Z,6.75
2022-07-31T03:47:40.091Z,7.10
2022-07-31T03:50:08.063Z,6.77
2022-07-31T03:52:35.901Z,6.90
2022-07-31T03:55:02.835Z,7.30
2022-07-31T03:57:33.194Z,7.18
2022-07-31T04:00:03.264Z,7.00
2022-07-31T04:02:31.824Z,6.93
2022-07-31T04:04:59.524Z,7.38
2022-07-31T04:07:26.923Z,7.78
2022-07-31T04:09:53.590Z,7.17
2022-07-31T04:12:20.434Z,8.10
2022-07-31T04:14:47.419Z,7.17
2022-07-31T04:17:14.457Z,8.00
2022-07-31T04:19:41.312Z,7.87
2022-07-31T04:22:08.602Z,7.28
2022-07-31T04:24:35.578Z,8.50
2022-07-31T04:27:07.014Z,7.50
2022-07-31T04:29:36.358Z,6.90
2022-07-31T04:32:04.095Z,7.00
2022-07-31T04:34:30.948Z,6.95
2022-07-31T04:36:58.740Z,7.00
2022-07-31T04:39:25.418Z,7.43
2022-07-31T04:41:52.149Z,7.00
2022-07-31T04:44:18.872Z,6.90
2022-07-31T04:46:45.550Z,6.50
2022-07-31T04:49:15.074Z,7.27
2022-07-31T04:51:42.750Z,6.90
2022-07-31T04:54:10.271Z,6.73
2022-07-31T04:56:37.686Z,7.30
2022-07-31T04:59:08.189Z,7.00
2022-07-31T05:01:35.020Z,7.60
2022-07-31T05:04:02.096Z,7.30
2022-07-31T05:06:36.853Z,7.30
2022-07-31T05:09:10.738Z,6.83
2022-07-31T05:11:41.015Z,7.93
2022-07-31T05:14:09.955Z,6.43
2022-07-31T05:16:37.025Z,6.83
2022-07-31T05:19:05.062Z,7.00
2022-07-31T05:21:52.930Z,7.60
2022-07-31T05:24:22.601Z,7.07
2022-07-31T05:27:00.273Z,6.70
2022-07-31T05:29:26.947Z,7.10
2022-07-31T05:32:00.453Z,7.07
2022-07-31T05:34:29.972Z,7.30
2022-07-31T05:36:57.861Z,6.77
2022-07-31T05:39:25.216Z,6.17
2022-07-31T05:41:52.801Z,6.57
2022-07-31T05:44:19.649Z,6.30
2022-07-31T05:46:46.462Z,6.80
2022-07-31T05:49:13.166Z,5.70
2022-07-31T05:51:43.615Z,6.00
2022-07-31T05:54:10.252Z,6.20
2022-07-31T05:56:36.918Z,6.30
2022-07-31T05:59:03.768Z,6.37
2022-07-31T06:01:30.492Z,6.00
2022-07-31T06:03:57.247Z,6.30
2022-07-31T06:06:23.918Z,5.90
2022-07-31T06:08:50.649Z,6.30
2022-07-31T06:11:17.319Z,6.23
2022-07-31T06:13:43.991Z,5.80
2022-07-31T06:16:14.912Z,6.50
2022-07-31T06:18:42.108Z,7.13
2022-07-31T06:21:08.818Z,6.63
2022-07-31T06:23:35.520Z,5.40
2022-07-31T06:26:03.363Z,6.80
2022-07-31T06:28:46.422Z,5.70
2022-07-31T06:31:22.265Z,6.30
2022-07-31T06:33:49.928Z,7.90
2022-07-31T06:36:17.839Z,5.50
2022-07-31T06:38:44.585Z,6.00
2022-07-31T06:41:11.298Z,5.80
2022-07-31T06:43:37.985Z,5.40
2022-07-31T06:46:04.618Z,5.90
2022-07-31T06:48:31.271Z,6.03
2022-07-31T06:53:44.612Z,5.90
2022-07-31T06:56:11.267Z,5.90
2022-07-31T06:58:38.054Z,5.30
2022-07-31T07:01:04.758Z,6.20
2022-07-31T07:03:31.477Z,6.23
2022-07-31T07:05:58.130Z,5.73
2022-07-31T07:08:25.144Z,5.33
2022-07-31T07:10:51.821Z,5.33
2022-07-31T07:13:18.477Z,5.23
2022-07-31T07:15:45.120Z,5.10
2022-07-31T07:18:11.823Z,5.90
2022-07-31T07:20:39.176Z,5.20
2022-07-31T07:23:05.997Z,4.97
2022-07-31T07:25:32.642Z,4.40
2022-07-31T07:27:59.308Z,5.17
2022-07-31T07:30:28.529Z,5.20
2022-07-31T07:32:55.396Z,4.53
2022-07-31T07:35:22.428Z,4.90
2022-07-31T07:37:49.252Z,4.67
2022-07-31T07:40:17.057Z,5.47
2022-07-31T07:42:44.035Z,5.10
2022-07-31T07:45:10.950Z,5.77
2022-07-31T07:47:53.885Z,5.30
2022-07-31T07:50:26.889Z,4.67
2022-07-31T07:52:55.754Z,4.50
2022-07-31T07:55:22.417Z,4.90
2022-07-31T07:57:49.143Z,4.67
2022-07-31T08:00:16.247Z,4.37
2022-07-31T08:02:44.921Z,4.50
2022-07-31T08:05:31.499Z,4.80
2022-07-31T08:07:58.373Z,5.33
2022-07-31T08:10:25.134Z,5.10
2022-07-31T08:12:51.834Z,5.10
2022-07-31T08:15:18.518Z,4.60
2022-07-31T08:17:45.251Z,5.30
2022-07-31T08:20:13.909Z,4.73
2022-07-31T08:22:40.590Z,5.00
2022-07-31T08:25:14.373Z,5.23
2022-07-31T08:27:41.818Z,4.30
2022-07-31T08:30:09.676Z,5.27
2022-07-31T08:32:36.685Z,4.53
2022-07-31T08:35:03.504Z,4.87
2022-07-31T08:37:51.638Z,4.40
2022-07-31T08:40:17.936Z,5.07
2022-07-31T08:42:45.941Z,4.60
2022-07-31T08:45:13.041Z,4.70
2022-07-31T08:47:44.581Z,4.90
2022-07-31T08:50:13.977Z,4.67
2022-07-31T08:52:43.880Z,4.57
2022-07-31T08:55:11.150Z,4.30
2022-07-31T08:57:58.163Z,4.77
2022-07-31T09:00:25.135Z,5.00
2022-07-31T09:02:53.104Z,4.40
2022-07-31T09:05:20.472Z,4.10
2022-07-31T09:07:47.138Z,5.03
2022-07-31T09:10:28.564Z,4.67
2022-07-31T09:12:56.099Z,4.80
2022-07-31T09:15:27.614Z,4.50
2022-07-31T09:17:54.607Z,4.20
2022-07-31T09:20:24.318Z,4.70
2022-07-31T09:23:10.491Z,4.40
2022-07-31T09:25:37.520Z,4.17
2022-07-31T09:28:05.901Z,4.50
2022-07-31T09:30:33.563Z,4.40
2022-07-31T09:33:14.015Z,4.33
2022-07-31T09:35:50.050Z,4.20
2022-07-31T09:38:17.580Z,5.03
2022-07-31T09:40:57.720Z,4.43
2022-07-31T09:43:25.704Z,4.80
2022-07-31T09:46:00.571Z,4.60
2022-07-31T09:48:28.615Z,5.10
2022-07-31T09:51:06.094Z,5.20
2022-07-31T09:53:43.917Z,4.40
2022-07-31T09:56:12.633Z,4.07
2022-07-31T09:58:42.575Z,4.57
2022-07-31T10:01:11.063Z,4.60
2022-07-31T10:03:39.561Z,4.30
2022-07-31T10:06:08.704Z,4.40
2022-07-31T10:08:37.071Z,5.17
2022-07-31T10:11:05.235Z,4.60
2022-07-31T10:13:37.488Z,4.60
2022-07-31T10:16:09.349Z,4.30
2022-07-31T10:18:44.102Z,4.50
2022-07-31T10:21:12.075Z,4.77
2022-07-31T10:23:42.110Z,4.70
2022-07-31T10:26:09.219Z,4.03
2022-07-31T10:28:39.147Z,4.30
2022-07-31T10:31:06.183Z,4.00
2022-07-31T10:33:44.212Z,4.00
2022-07-31T10:36:18.422Z,4.00
2022-07-31T10:38:56.064Z,3.80
2022-07-31T10:41:46.929Z,3.97
2022-07-31T10:44:19.220Z,4.40
2022-07-31T10:46:45.873Z,3.30
2022-07-31T10:49:12.923Z,3.80
2022-07-31T10:51:50.145Z,3.87
2022-07-31T10:54:17.488Z,3.27
2022-07-31T10:56:46.168Z,3.30
2022-07-31T10:59:13.026Z,4.17
2022-07-31T11:01:54.829Z,3.90
2022-07-31T11:04:29.338Z,3.70
2022-07-31T11:06:56.310Z,3.80
2022-07-31T11:09:24.682Z,3.93
2022-07-31T11:11:53.464Z,3.40
2022-07-31T11:14:31.964Z,3.47
2022-07-31T11:16:58.723Z,3.03
2022-07-31T11:19:25.448Z,3.07
2022-07-31T11:21:57.247Z,3.47
2022-07-31T11:24:24.161Z,3.03
2022-07-31T11:26:55.819Z,3.30
2022-07-31T11:30:00.679Z,3.30
2022-07-31T11:32:25.382Z,2.67
2022-07-31T11:34:56.588Z,3.60
2022-07-31T11:37:25.715Z,3.00
2022-07-31T11:39:53.827Z,3.10
2022-07-31T11:42:26.573Z,2.90
2022-07-31T11:45:08.302Z,3.10
2022-07-31T11:48:11.034Z,3.07
2022-07-31T11:50:42.770Z,2.97
2022-07-31T11:53:09.510Z,2.93
2022-07-31T11:55:59.556Z,3.03
2022-07-31T11:58:28.537Z,3.10
2022-07-31T12:00:56.451Z,3.00
2022-07-31T12:03:26.498Z,3.13
2022-07-31T12:05:53.471Z,3.20
2022-07-31T12:08:21.483Z,2.97
2022-07-31T12:10:49.105Z,3.10
2022-07-31T12:13:18.926Z,3.13
2022-07-31T12:16:04.262Z,3.30
2022-07-31T12:18:34.135Z,3.20
2022-07-31T12:21:04.731Z,2.80
2022-07-31T12:23:42.156Z,2.93
2022-07-31T12:26:12.123Z,3.00
2022-07-31T12:28:39.117Z,3.17
2022-07-31T12:31:05.874Z,3.00
2022-07-31T12:33:43.234Z,2.93
2022-07-31T12:36:15.065Z,3.13
2022-07-31T12:38:48.415Z,3.10
2022-07-31T12:41:16.229Z,3.50
2022-07-31T12:43:51.701Z,3.30
2022-07-31T12:46:35.830Z,3.27
2022-07-31T12:49:03.678Z,2.93
2022-07-31T12:51:44.248Z,3.43
2022-07-31T12:54:17.758Z,2.90
2022-07-31T12:56:46.299Z,3.27
2022-07-31T12:59:13.597Z,3.00
2022-07-31T13:01:40.487Z,3.07
2022-07-31T13:04:08.013Z,3.17
2022-07-31T13:06:45.122Z,3.73
2022-07-31T13:09:11.762Z,3.40
2022-07-31T13:11:46.516Z,2.90
2022-07-31T13:14:19.279Z,2.80
2022-07-31T13:16:46.721Z,3.37
2022-07-31T13:19:14.197Z,3.03
2022-07-31T13:21:49.245Z,2.90
2022-07-31T13:24:18.886Z,3.20
2022-07-31T13:26:45.867Z,2.67
2022-07-31T13:29:12.941Z,3.00
2022-07-31T13:31:39.726Z,2.70
2022-07-31T13:34:06.912Z,2.60
2022-07-31T13:36:38.996Z,2.60
2022-07-31T13:39:07.633Z,2.73
2022-07-31T13:41:35.457Z,2.40
2022-07-31T13:44:03.188Z,2.30
2022-07-31T13:46:30.018Z,2.70
2022-07-31T13:49:02.619Z,2.73
2022-07-31T13:51:30.043Z,2.67
2022-07-31T13:53:56.823Z,3.00
2022-07-31T13:56:40.955Z,2.70
2022-07-31T13:59:11.393Z,2.80
2022-07-31T14:02:03.406Z,2.80
2022-07-31T14:04:25.795Z,3.03
2022-07-31T14:06:55.208Z,2.50
2022-07-31T14:09:21.887Z,2.90
2022-07-31T14:11:48.533Z,2.87
2022-07-31T14:14:22.951Z,2.70
2022-07-31T14:16:50.525Z,3.10
2022-07-31T14:19:17.177Z,2.70
2022-07-31T14:21:55.966Z,2.67
2022-07-31T14:24:24.990Z,3.07
2022-07-31T14:26:51.876Z,2.90
2022-07-31T14:29:18.584Z,3.30
2022-07-31T14:31:45.276Z,3.10
2022-07-31T14:34:11.936Z,3.03
2022-07-31T14:36:38.815Z,2.90
2022-07-31T14:39:05.477Z,2.97
2022-07-31T14:41:32.132Z,2.53
2022-07-31T14:43:58.800Z,2.60
2022-07-31T14:46:25.458Z,2.80
2022-07-31T14:48:52.265Z,2.87
2022-07-31T14:51:20.032Z,2.80
2022-07-31T14:53:47.035Z,2.70
2022-07-31T14:56:15.112Z,2.50
2022-07-31T14:58:57.761Z,2.67
2022-07-31T15:01:26.817Z,2.53
2022-07-31T15:03:57.599Z,2.50
2022-07-31T15:06:50.834Z,3.10
2022-07-31T15:09:12.864Z,3.10
2022-07-31T15:11:59.677Z,2.90
2022-07-31T15:14:28.744Z,2.80
2022-07-31T15:16:55.390Z,2.50
2022-07-31T15:19:22.063Z,2.87
2022-07-31T15:22:11.139Z,2.40
2022-07-31T15:24:35.644Z,2.97
2022-07-31T15:27:02.737Z,2.70
2022-07-31T15:30:05.765Z,3.00
2022-07-31T15:32:16.386Z,2.60
2022-07-31T15:34:43.070Z,3.20
2022-07-31T15:37:09.717Z,2.60
2022-07-31T15:39:37.277Z,2.50
2022-07-31T15:42:04.131Z,2.97
2022-07-31T15:44:30.785Z,2.63
2022-07-31T15:46:57.437Z,2.73
2022-07-31T15:49:24.173Z,2.67
2022-07-31T15:51:50.874Z,3.00
2022-07-31T15:54:17.612Z,2.90
2022-07-31T15:56:46.686Z,2.60
2022-07-31T15:59:13.347Z,2.70
2022-07-31T16:01:40.177Z,3.00
2022-07-31T16:04:16.329Z,2.70
2022-07-31T16:06:48.862Z,2.60
2022-07-31T16:09:16.275Z,3.00
2022-07-31T16:12:04.837Z,2.90
2022-07-31T16:14:29.729Z,3.00
2022-07-31T16:17:02.461Z,2.97
2022-07-31T16:19:29.235Z,2.87
2022-07-31T16:22:00.457Z,2.87
2022-07-31T16:24:27.560Z,2.90
2022-07-31T16:26:54.336Z,2.80
2022-07-31T16:29:59.962Z,2.90
2022-07-31T16:32:10.700Z,2.90
2022-07-31T16:34:37.385Z,3.03
2022-07-31T16:37:04.371Z,2.80
2022-07-31T16:39:31.206Z,2.60
2022-07-31T16:41:57.845Z,2.63
2022-07-31T16:44:24.514Z,2.90
2022-07-31T16:46:54.711Z,3.00
2022-07-31T16:49:31.882Z,3.00
2022-07-31T16:52:07.505Z,2.83
2022-07-31T16:54:34.355Z,3.23
2022-07-31T16:57:01.065Z,2.73
2022-07-31T16:59:27.749Z,2.70
2022-07-31T17:01:59.844Z,2.97
2022-07-31T17:04:27.900Z,2.70
2022-07-31T17:06:54.928Z,3.10
2022-07-31T17:09:21.749Z,2.60
2022-07-31T17:11:50.935Z,2.80
2022-07-31T17:14:19.576Z,3.27
2022-07-31T17:16:48.983Z,2.90
2022-07-31T17:19:42.999Z,2.80
2022-07-31T17:22:05.123Z,2.90
2022-07-31T17:24:34.714Z,2.60
2022-07-31T17:27:04.725Z,2.50
2022-07-31T17:29:31.654Z,3.00
2022-07-31T17:31:58.312Z,2.83
2022-07-31T17:34:24.986Z,2.47
2022-07-31T17:36:52.022Z,2.50
2022-07-31T17:39:18.759Z,3.37
2022-07-31T17:41:45.491Z,2.70
2022-07-31T17:44:12.243Z,2.70
2022-07-31T17:46:48.067Z,3.07
2022-07-31T17:49:19.362Z,2.50
2022-07-31T17:52:07.717Z,2.87
2022-07-31T17:54:34.523Z,2.77
2022-07-31T17:57:01.818Z,2.77
2022-07-31T17:59:28.635Z,3.07
2022-07-31T18:02:00.075Z,3.07
2022-07-31T18:04:28.608Z,2.90
2022-07-31T18:06:55.562Z,3.10
2022-07-31T18:09:23.636Z,3.30
2022-07-31T18:11:51.778Z,3.40
2022-07-31T18:14:18.867Z,3.20
2022-07-31T18:16:45.798Z,3.27
2022-07-31T18:19:13.171Z,3.17
2022-07-31T18:21:40.017Z,3.10
2022-07-31T18:24:07.057Z,3.33
2022-07-31T18:26:35.305Z,3.20
2022-07-31T18:29:02.637Z,3.23
2022-07-31T18:31:31.763Z,3.23
2022-07-31T18:34:01.967Z,3.40
2022-07-31T18:36:28.704Z,3.33
2022-07-31T18:38:55.374Z,3.20
2022-07-31T18:41:22.042Z,3.80
2022-07-31T18:43:48.805Z,3.40
2022-07-31T18:46:15.811Z,3.90
2022-07-31T18:48:42.549Z,3.47
2022-07-31T18:51:09.352Z,3.27
2022-07-31T18:53:36.048Z,3.70
2022-07-31T18:56:02.930Z,3.37
2022-07-31T18:58:29.702Z,3.63
2022-07-31T19:00:56.397Z,3.83
2022-07-31T19:03:25.645Z,3.43
2022-07-31T19:05:53.140Z,3.47
2022-07-31T19:08:20.886Z,3.67
2022-07-31T19:10:49.364Z,3.37
2022-07-31T19:13:19.136Z,3.70
2022-07-31T19:15:52.743Z,3.30
2022-07-31T19:18:28.209Z,3.80
2022-07-31T19:21:16.701Z,4.30
2022-07-31T19:23:43.149Z,3.60
2022-07-31T19:26:09.851Z,3.80
2022-07-31T19:28:38.075Z,3.90
2022-07-31T19:31:04.879Z,4.33
2022-07-31T19:33:31.854Z,3.77
2022-07-31T19:36:01.993Z,3.73
2022-07-31T19:38:31.596Z,4.03
2022-07-31T19:40:58.478Z,4.53
2022-07-31T19:43:25.334Z,3.90
2022-07-31T19:46:10.225Z,3.80
2022-07-31T19:48:40.936Z,3.83
2022-07-31T19:51:08.227Z,4.40
2022-07-31T19:53:34.946Z,3.93
2022-07-31T19:56:05.531Z,4.37
2022-07-31T19:58:36.540Z,6.23
2022-07-31T20:01:05.173Z,4.33
2022-07-31T20:03:32.641Z,4.70
2022-07-31T20:05:59.477Z,4.43
2022-07-31T20:08:26.239Z,4.17
2022-07-31T20:10:54.879Z,4.17
2022-07-31T20:13:21.548Z,4.37
2022-07-31T20:15:50.885Z,4.00
2022-07-31T20:18:27.460Z,4.13
2022-07-31T20:21:07.312Z,3.87
2022-07-31T20:23:37.161Z,4.07
2022-07-31T20:26:05.747Z,3.80
2022-07-31T20:28:32.473Z,3.70
2022-07-31T20:30:59.252Z,3.97
2022-07-31T20:33:26.053Z,3.90
2022-07-31T20:35:52.939Z,3.43
2022-07-31T20:38:23.637Z,3.83
2022-07-31T20:40:53.624Z,4.03
2022-07-31T20:43:26.319Z,4.10
2022-07-31T20:45:54.366Z,3.87
2022-07-31T20:48:23.882Z,3.77
2022-07-31T20:50:51.198Z,4.10
2022-07-31T20:53:17.990Z,4.23
2022-07-31T20:55:47.428Z,4.00
2022-07-31T20:58:14.478Z,4.27
2022-07-31T21:00:41.765Z,4.60
2022-07-31T21:03:08.734Z,3.80
2022-07-31T21:05:35.444Z,4.83
2022-07-31T21:08:02.201Z,4.07
2022-07-31T21:10:29.947Z,4.17
2022-07-31T21:12:57.330Z,4.70
2022-07-31T21:15:41.191Z,4.20
2022-07-31T21:18:17.890Z,4.50
2022-07-31T21:20:52.246Z,4.00
2022-07-31T21:23:24.349Z,7.03
2022-07-31T21:25:52.490Z,4.90
2022-07-31T21:28:19.443Z,4.57
2022-07-31T21:30:46.780Z,5.17
2022-07-31T21:33:13.599Z,4.20
2022-07-31T21:35:40.890Z,3.90
2022-07-31T21:38:12.291Z,4.43
2022-07-31T21:40:40.243Z,3.97
2022-07-31T21:43:08.442Z,4.70
2022-07-31T21:45:49.585Z,4.13
2022-07-31T21:48:18.152Z,4.80
2022-07-31T21:50:46.469Z,5.07
2022-07-31T21:53:13.653Z,4.87
2022-07-31T21:55:40.419Z,4.60
2022-07-31T21:58:07.724Z,6.13
2022-07-31T22:00:34.791Z,5.63
2022-07-31T22:03:02.923Z,4.70
2022-07-31T22:05:49.290Z,4.53
2022-07-31T22:08:16.599Z,4.80
2022-07-31T22:10:43.567Z,5.50
2022-07-31T22:13:10.680Z,4.20
2022-07-31T22:15:50.477Z,4.30
2022-07-31T22:18:26.357Z,4.50
2022-07-31T22:20:53.729Z,5.10
2022-07-31T22:23:20.878Z,4.10
2022-07-31T22:25:50.975Z,5.13
2022-07-31T22:28:20.546Z,4.80
2022-07-31T22:30:48.036Z,4.60
2022-07-31T22:33:15.255Z,4.60
2022-07-31T22:35:42.736Z,5.17
2022-07-31T22:38:11.492Z,4.53
2022-07-31T22:40:38.431Z,4.57
2022-07-31T22:44:09.405Z,4.47
2022-07-31T22:45:53.863Z,4.33
2022-07-31T22:48:24.257Z,4.97
2022-07-31T22:50:51.007Z,5.00
2022-07-31T22:53:17.721Z,4.47
2022-07-31T22:55:44.461Z,4.20
2022-07-31T22:58:14.861Z,4.50
2022-07-31T23:00:42.331Z,4.60
2022-07-31T23:03:09.048Z,5.53
2022-07-31T23:06:28.111Z,4.60
2022-07-31T23:08:22.379Z,4.17
2022-07-31T23:10:49.248Z,4.23
2022-07-31T23:13:15.952Z,4.57
2022-07-31T23:15:43.689Z,4.40
2022-07-31T23:18:10.484Z,4.73
2022-07-31T23:20:37.159Z,4.60
2022-07-31T23:23:03.837Z,4.77
2022-07-31T23:25:30.520Z,4.77
2022-07-31T23:27:57.195Z,4.37
2022-07-31T23:30:27.325Z,4.27
2022-07-31T23:32:55.291Z,4.40
2022-07-31T23:35:22.045Z,4.63
2022-07-31T23:37:48.736Z,3.97
2022-07-31T23:40:15.443Z,4.53
2022-07-31T23:42:42.104Z,4.00
2022-07-31T23:45:12.195Z,3.80
2022-07-31T23:47:45.183Z,4.00
2022-07-31T23:50:14.369Z,4.17
2022-07-31T23:52:41.891Z,3.67
2022-07-31T23:55:09.099Z,4.00
2022-07-31T23:57:36.407Z,3.83
